CYYZ/YYZ METAR and TAF weather

Enter ICAO airport designator
Station Type Date Time Source
CYYZ METAR 2017/08/21 23:00 UTC NOAA

CYYZ 212300Z 25008KT 15SM FEW050 BKN250 28/19 A3001 RMK CU1CS6 SLP162 DENSITY ALT 2200FT


Station Type Date Time Source
CYYZ Decoded METAR 2017/08/21 23:00 UTC NOAA

Toronto Pearson Int'L. Ont., Canada (CYYZ) 43-40N 079-38W 173M
Aug 21, 2017 - 07:00 PM EDT / 2017.08.21 2300 UTC
Wind: from the WSW (250 degrees) at 9 MPH (8 KT):0
Visibility: 15 mile(s):0
Sky conditions: mostly cloudy
Temperature: 82 F (28 C)
Dew Point: 66 F (19 C)
Relative Humidity: 58%
Pressure (altimeter): 30.01 in. Hg (1016 hPa)
ob: CYYZ 212300Z 25008KT 15SM FEW050 BKN250 28/19 A3001 RMK CU1CS6 SLP162 DENSITY ALT 2200FT
cycle: 23

Station Type Date Time Source
CYYZ TAF 2017/08/21 21:40 UTC NOAA

TAF CYYZ 212038Z 2121/2224 24010KT P6SM FEW050 BKN260
FM220300 23006KT P6SM SKC
FM221000 19012KT 6SM BR SCT008 BKN012
BECMG 2211/2213 21010G20KT
FM221500 22018G28KT 6SM -SHRA BR BKN015 OVC080 PROB30 2215/2220 VRB25G45KT 1SM +TSRA BR BKN008 OVC040CB
FM222000 24015G25KT 6SM -SHRA BR BKN020 OVC060
FM222300 30020G30KT P6SM FEW020
RMK NXT FCST BY 220000Z


Example: see airport list